Time;durP1;ratioP1;P1;durP2;ratioP2;P2;SDS_P1;SDS_P2;PMS_P1;PMS_P2;Temp;Humidity;BMP_temperature;BMP_pressure;BME280_temperature;BME280_humidity;BME280_pressure;Samples;Min_cycle;Max_cycle;Signal;HPM_P1;HPM_P2
2023/08/13 00:02:06;;;;;;;10.33;5.70;;;21.80;98.00;;;;;;5031695;28;20481;-72
2023/08/13 00:04:33;;;;;;;7.93;4.73;;;21.60;98.00;;;;;;5033085;28;20477;-71
2023/08/13 00:07:01;;;;;;;8.20;5.03;;;21.50;98.00;;;;;;5032496;28;20482;-71
2023/08/13 00:09:28;;;;;;;9.70;5.57;;;21.40;98.00;;;;;;5032722;28;20446;-71
2023/08/13 00:11:55;;;;;;;9.70;4.87;;;21.50;98.00;;;;;;5032495;28;20462;-71
2023/08/13 00:14:23;;;;;;;8.60;5.30;;;21.50;98.00;;;;;;5031147;28;20459;-71
2023/08/13 00:16:51;;;;;;;9.20;4.87;;;21.60;98.00;;;;;;5032478;28;20512;-71
2023/08/13 00:19:21;;;;;;;9.67;5.70;;;21.60;98.00;;;;;;5031358;28;20463;-71
2023/08/13 00:21:48;;;;;;;12.70;5.80;;;21.70;98.00;;;;;;5032435;28;20482;-71
2023/08/13 00:24:15;;;;;;;10.73;5.70;;;21.70;98.00;;;;;;5032218;28;20459;-71
2023/08/13 00:26:42;;;;;;;9.77;5.73;;;21.70;98.00;;;;;;5032112;28;20454;-71
2023/08/13 00:29:09;;;;;;;14.63;6.23;;;21.60;98.00;;;;;;5031569;28;20560;-71
2023/08/13 00:31:36;;;;;;;7.70;4.80;;;21.60;98.00;;;;;;5031928;28;20482;-71
2023/08/13 00:34:05;;;;;;;19.03;6.00;;;21.50;98.00;;;;;;5032773;28;20451;-71
2023/08/13 00:36:32;;;;;;;10.63;5.77;;;21.50;98.00;;;;;;5032269;28;20442;-71
2023/08/13 00:39:00;;;;;;;8.70;5.30;;;21.50;98.00;;;;;;5031961;28;20462;-71
2023/08/13 00:41:27;;;;;;;11.87;6.57;;;21.50;98.00;;;;;;5031595;28;20457;-71
2023/08/13 00:43:55;;;;;;;13.67;6.27;;;21.40;98.00;;;;;;5031788;28;20455;-71
2023/08/13 00:46:22;;;;;;;10.37;5.90;;;21.30;98.00;;;;;;5030965;28;20451;-72
2023/08/13 00:48:57;;;;;;;9.47;5.50;;;21.20;98.00;;;;;;5031881;28;20532;-72
2023/08/13 00:51:26;;;;;;;9.80;5.50;;;21.10;98.00;;;;;;5032026;28;20466;-72
2023/08/13 00:53:54;;;;;;;10.90;5.93;;;21.10;98.00;;;;;;5031942;28;20450;-72
2023/08/13 00:56:23;;;;;;;9.00;4.70;;;21.10;98.00;;;;;;5032122;28;20463;-71
2023/08/13 00:58:51;;;;;;;8.33;4.90;;;21.00;98.00;;;;;;5032081;28;20486;-71
2023/08/13 01:01:19;;;;;;;7.90;4.77;;;21.10;98.00;;;;;;5031829;28;20826;-71
2023/08/13 01:03:46;;;;;;;8.80;4.77;;;21.10;98.00;;;;;;5031751;28;20458;-72
2023/08/13 01:06:23;;;;;;;8.50;5.10;;;21.10;98.00;;;;;;5031826;28;20470;-71
2023/08/13 01:09:02;;;;;;;7.50;4.53;;;21.10;98.00;;;;;;5031646;28;20486;-72
2023/08/13 01:11:42;;;;;;;9.07;4.60;;;21.10;98.00;;;;;;5031750;28;20876;-71
2023/08/13 01:14:14;;;;;;;9.73;4.60;;;21.20;98.00;;;;;;5031721;28;20446;-71
2023/08/13 01:16:44;;;;;;;10.60;4.97;;;21.10;98.00;;;;;;5030437;28;20473;-71
2023/08/13 01:19:13;;;;;;;7.17;4.63;;;21.10;98.00;;;;;;5031499;28;20463;-71
2023/08/13 01:21:41;;;;;;;6.60;4.40;;;21.00;98.00;;;;;;5031532;28;20449;-72
2023/08/13 01:24:09;;;;;;;7.87;4.63;;;20.90;98.00;;;;;;5031502;28;20980;-71
2023/08/13 01:26:47;;;;;;;16.90;4.63;;;20.90;98.00;;;;;;5031606;28;20461;-71
2023/08/13 01:29:24;;;;;;;7.10;4.37;;;20.90;98.00;;;;;;5031421;28;21027;-71
2023/08/13 01:31:55;;;;;;;6.63;4.40;;;20.90;98.00;;;;;;5031601;28;20450;-71
2023/08/13 01:34:22;;;;;;;7.00;4.40;;;20.90;98.00;;;;;;5031539;28;20465;-71
2023/08/13 01:36:50;;;;;;;5.60;3.77;;;20.90;98.00;;;;;;5030365;28;20461;-72
2023/08/13 01:39:26;;;;;;;7.00;4.77;;;21.00;98.00;;;;;;5031289;28;20461;-72
2023/08/13 01:41:55;;;;;;;6.60;4.13;;;20.90;98.00;;;;;;5030590;28;20904;-72
2023/08/13 01:44:26;;;;;;;5.93;4.13;;;20.80;98.00;;;;;;5031394;28;20466;-71
2023/08/13 01:46:53;;;;;;;5.20;3.97;;;20.70;98.00;;;;;;5031385;28;20450;-71
2023/08/13 01:49:24;;;;;;;7.37;4.63;;;20.70;98.00;;;;;;5031544;28;20491;-71
2023/08/13 01:51:51;;;;;;;6.20;4.10;;;20.60;98.00;;;;;;5031539;28;20473;-72
2023/08/13 01:54:19;;;;;;;7.30;4.40;;;20.60;98.00;;;;;;5031625;28;20455;-71
2023/08/13 01:56:46;;;;;;;6.03;3.90;;;20.50;98.00;;;;;;5031486;28;20480;-72
2023/08/13 01:59:14;;;;;;;5.40;3.83;;;20.60;98.00;;;;;;5029955;28;20451;-71
2023/08/13 02:01:42;;;;;;;6.00;3.87;;;20.60;98.00;;;;;;5031375;28;20451;-72
2023/08/13 02:04:09;;;;;;;6.30;4.47;;;20.60;98.00;;;;;;5029811;28;20806;-71
2023/08/13 02:06:37;;;;;;;6.37;3.97;;;20.60;98.00;;;;;;5031090;28;20454;-71
2023/08/13 02:09:04;;;;;;;5.50;3.87;;;20.40;98.00;;;;;;5030959;28;20489;-72
2023/08/13 02:11:33;;;;;;;5.10;3.67;;;20.30;98.00;;;;;;5031388;28;20975;-71
2023/08/13 02:14:00;;;;;;;5.07;3.47;;;20.40;98.00;;;;;;5033445;28;20973;-71
2023/08/13 02:16:27;;;;;;;5.83;3.60;;;20.50;98.00;;;;;;5034715;28;20451;-72
2023/08/13 02:18:55;;;;;;;7.03;4.20;;;20.50;98.00;;;;;;5034657;28;20455;-71
2023/08/13 02:21:22;;;;;;;5.43;3.80;;;20.50;98.00;;;;;;5034570;28;20455;-71
2023/08/13 02:23:49;;;;;;;6.63;4.17;;;20.50;98.00;;;;;;5034443;28;20454;-71
2023/08/13 02:26:16;;;;;;;4.47;3.27;;;20.60;98.00;;;;;;5034737;28;20451;-72
2023/08/13 02:28:45;;;;;;;5.13;3.47;;;20.60;98.00;;;;;;5034417;28;20483;-72
2023/08/13 02:31:12;;;;;;;7.40;3.87;;;20.60;98.00;;;;;;5034204;28;20455;-71
2023/08/13 02:33:40;;;;;;;14.70;3.83;;;20.60;98.00;;;;;;5033193;28;20466;-72
2023/08/13 02:36:07;;;;;;;8.50;3.90;;;20.50;98.00;;;;;;5034530;28;20457;-72
2023/08/13 02:38:34;;;;;;;6.97;4.30;;;20.40;98.00;;;;;;5033231;28;20512;-71
2023/08/13 02:41:01;;;;;;;6.13;3.90;;;20.30;98.00;;;;;;5034431;28;20451;-71
2023/08/13 02:43:29;;;;;;;7.10;4.00;;;20.20;98.00;;;;;;5034177;28;20443;-71
2023/08/13 02:45:57;;;;;;;5.23;3.63;;;20.20;98.00;;;;;;5034361;28;21103;-71
2023/08/13 02:48:24;;;;;;;6.47;3.90;;;20.30;98.00;;;;;;5032931;28;21016;-71
2023/08/13 02:50:51;;;;;;;5.60;3.90;;;20.20;98.00;;;;;;5033071;28;20477;-71
2023/08/13 02:53:19;;;;;;;6.50;3.80;;;20.20;98.00;;;;;;5034174;28;20470;-71
2023/08/13 02:55:49;;;;;;;7.83;3.90;;;20.40;98.00;;;;;;5033929;28;20454;-70
2023/08/13 02:58:16;;;;;;;7.87;4.27;;;20.60;98.00;;;;;;5032634;28;20933;-71
2023/08/13 03:00:43;;;;;;;5.50;3.70;;;20.60;98.00;;;;;;5033775;28;20454;-71
2023/08/13 03:03:12;;;;;;;6.60;3.90;;;20.60;98.00;;;;;;5033545;28;20948;-72
2023/08/13 03:05:39;;;;;;;9.00;4.70;;;20.60;98.00;;;;;;5032383;28;20909;-71
2023/08/13 03:08:06;;;;;;;6.90;3.97;;;20.60;98.00;;;;;;5033496;28;20982;-71
2023/08/13 03:10:33;;;;;;;6.47;4.30;;;20.60;98.00;;;;;;5033567;28;20469;-72
2023/08/13 03:13:00;;;;;;;7.00;4.40;;;20.60;98.00;;;;;;5033583;28;20838;-72
2023/08/13 03:15:29;;;;;;;8.20;4.97;;;20.60;98.00;;;;;;5032391;28;20877;-71
2023/08/13 03:17:57;;;;;;;8.47;5.20;;;20.40;98.00;;;;;;5033490;28;20463;-71
2023/08/13 03:20:26;;;;;;;8.70;5.07;;;20.40;98.00;;;;;;5033747;28;20451;-71
2023/08/13 03:22:53;;;;;;;11.70;5.47;;;20.40;98.00;;;;;;5033460;28;20450;-72
2023/08/13 03:25:20;;;;;;;8.97;5.20;;;20.40;98.00;;;;;;5033569;28;20446;-71
2023/08/13 03:27:48;;;;;;;9.10;4.70;;;20.50;98.00;;;;;;5033460;28;20455;-71
2023/08/13 03:30:15;;;;;;;11.37;5.60;;;20.50;98.00;;;;;;5033424;28;20482;-71
2023/08/13 03:32:42;;;;;;;9.40;5.00;;;20.60;98.00;;;;;;5033555;28;20509;-72
2023/08/13 03:35:10;;;;;;;8.47;5.03;;;20.70;98.00;;;;;;5033410;28;20458;-72
2023/08/13 03:37:38;;;;;;;9.07;4.97;;;20.80;98.00;;;;;;5033289;28;20446;-71
2023/08/13 03:40:07;;;;;;;8.37;5.20;;;20.80;98.00;;;;;;5032398;28;20455;-72
2023/08/13 03:42:34;;;;;;;8.77;5.50;;;20.80;98.00;;;;;;5032629;28;21082;-71
2023/08/13 03:45:01;;;;;;;9.00;5.10;;;20.80;98.00;;;;;;5031380;28;20462;-72
2023/08/13 03:47:28;;;;;;;8.60;5.20;;;20.70;98.00;;;;;;5032519;28;20455;-71
2023/08/13 03:49:55;;;;;;;10.00;5.33;;;20.70;98.00;;;;;;5032372;28;20482;-71
2023/08/13 03:52:23;;;;;;;8.00;5.23;;;20.70;98.00;;;;;;5032621;28;20455;-71
2023/08/13 03:54:57;;;;;;;6.50;4.37;;;20.60;98.00;;;;;;5032153;28;20462;-72
2023/08/13 03:57:24;;;;;;;11.00;5.50;;;20.70;98.00;;;;;;5032725;28;20458;-71
2023/08/13 03:59:51;;;;;;;8.33;5.13;;;20.80;98.00;;;;;;5031596;28;20473;-71
2023/08/13 04:02:18;;;;;;;7.70;5.10;;;20.80;98.00;;;;;;5032760;28;20550;-72
2023/08/13 04:04:46;;;;;;;7.43;4.40;;;20.80;98.00;;;;;;5032667;28;20451;-71
2023/08/13 04:07:13;;;;;;;7.93;4.70;;;20.80;98.00;;;;;;5032486;28;20454;-71
2023/08/13 04:09:40;;;;;;;8.97;5.03;;;20.90;98.00;;;;;;5032519;28;20488;-72
2023/08/13 04:12:09;;;;;;;9.20;5.20;;;20.90;98.00;;;;;;5032527;28;20465;-70
2023/08/13 04:14:36;;;;;;;7.70;4.73;;;20.90;98.00;;;;;;5032165;28;20977;-71
2023/08/13 04:17:03;;;;;;;7.60;4.83;;;20.80;98.00;;;;;;5032535;28;20895;-71
2023/08/13 04:19:31;;;;;;;6.50;4.30;;;20.80;98.00;;;;;;5032477;28;20540;-71
2023/08/13 04:21:58;;;;;;;9.13;4.67;;;20.70;98.00;;;;;;5032410;28;20536;-71
2023/08/13 04:24:25;;;;;;;8.43;4.90;;;20.70;98.00;;;;;;5031187;28;20459;-71
2023/08/13 04:26:53;;;;;;;8.10;4.90;;;20.70;98.00;;;;;;5032360;28;20931;-71
2023/08/13 04:29:21;;;;;;;11.03;5.80;;;20.80;98.00;;;;;;5032235;28;20520;-71
2023/08/13 04:31:48;;;;;;;9.30;5.00;;;20.90;98.00;;;;;;5032417;28;20466;-72
2023/08/13 04:34:15;;;;;;;7.47;4.50;;;20.80;98.00;;;;;;5031870;28;20455;-71
2023/08/13 04:36:44;;;;;;;8.90;5.20;;;20.80;98.00;;;;;;5032466;28;20462;-71
2023/08/13 04:39:11;;;;;;;7.00;4.30;;;20.80;98.00;;;;;;5030800;28;20475;-72
2023/08/13 04:41:40;;;;;;;6.77;4.30;;;20.90;98.00;;;;;;5032369;28;20949;-71
2023/08/13 04:44:07;;;;;;;6.43;4.27;;;20.80;98.00;;;;;;5030469;28;20463;-71
2023/08/13 04:46:36;;;;;;;7.03;4.57;;;21.00;98.00;;;;;;5031967;28;20462;-72
2023/08/13 04:49:03;;;;;;;7.63;4.80;;;21.00;98.00;;;;;;5031634;28;20478;-71
2023/08/13 04:51:30;;;;;;;7.03;4.50;;;21.10;98.00;;;;;;5032213;28;20843;-72
2023/08/13 04:53:57;;;;;;;6.87;4.50;;;21.00;98.00;;;;;;5031835;28;20892;-71
2023/08/13 04:56:25;;;;;;;10.23;5.87;;;20.90;98.00;;;;;;5032106;28;20878;-71
2023/08/13 04:58:52;;;;;;;10.43;5.20;;;20.80;98.00;;;;;;5031940;28;20470;-71
2023/08/13 05:01:19;;;;;;;8.93;5.13;;;20.70;98.00;;;;;;5030508;28;20481;-71
2023/08/13 05:03:48;;;;;;;9.60;5.50;;;20.80;98.00;;;;;;5031797;28;20842;-71
2023/08/13 05:06:15;;;;;;;11.33;5.90;;;20.80;98.00;;;;;;5031745;28;20540;-71
2023/08/13 05:08:42;;;;;;;10.53;4.87;;;20.90;98.00;;;;;;5031675;28;20450;-72
2023/08/13 05:11:09;;;;;;;12.27;6.63;;;20.80;98.00;;;;;;5030549;28;20475;-71
2023/08/13 05:13:36;;;;;;;12.30;5.80;;;20.80;98.00;;;;;;5031625;28;20481;-71
2023/08/13 05:16:04;;;;;;;10.90;5.53;;;20.80;98.00;;;;;;5031695;28;20949;-72
2023/08/13 05:18:31;;;;;;;11.70;5.10;;;20.80;98.00;;;;;;5031516;28;20457;-71
2023/08/13 05:21:00;;;;;;;8.40;4.40;;;21.00;98.00;;;;;;5031795;28;20474;-72
2023/08/13 05:23:27;;;;;;;8.83;4.73;;;20.90;98.00;;;;;;5031594;28;20458;-71
2023/08/13 05:25:55;;;;;;;11.13;5.30;;;20.90;98.00;;;;;;5030560;28;20443;-71
2023/08/13 05:28:22;;;;;;;11.13;5.90;;;21.00;98.00;;;;;;5031556;28;20969;-71
2023/08/13 05:30:49;;;;;;;8.60;4.80;;;21.10;98.00;;;;;;5031648;28;20800;-72
2023/08/13 05:33:16;;;;;;;7.20;4.70;;;21.00;98.00;;;;;;5031517;28;20450;-72
2023/08/13 05:35:43;;;;;;;10.40;5.87;;;20.90;98.00;;;;;;5031660;28;20453;-71
2023/08/13 05:38:12;;;;;;;8.20;4.63;;;20.90;98.00;;;;;;5031331;28;20473;-72
2023/08/13 05:40:39;;;;;;;8.17;4.77;;;20.80;98.00;;;;;;5031408;28;20455;-71
2023/08/13 05:43:06;;;;;;;7.17;4.47;;;20.80;98.00;;;;;;5031244;28;20462;-72
2023/08/13 05:45:33;;;;;;;8.53;4.70;;;20.90;98.00;;;;;;5031335;28;20447;-71
2023/08/13 05:48:01;;;;;;;7.60;4.90;;;20.90;98.00;;;;;;5033977;28;20794;-72
2023/08/13 05:50:28;;;;;;;7.83;4.67;;;21.10;98.00;;;;;;5035194;28;20496;-72
2023/08/13 05:52:55;;;;;;;6.53;4.43;;;21.20;98.00;;;;;;5035081;28;20458;-71
2023/08/13 05:55:24;;;;;;;7.93;4.70;;;21.20;98.00;;;;;;5035218;28;20520;-71
2023/08/13 05:57:51;;;;;;;10.50;4.93;;;21.20;98.00;;;;;;5035123;28;20469;-71
2023/08/13 06:00:18;;;;;;;9.27;4.50;;;21.30;98.00;;;;;;5035255;28;20450;-71
2023/08/13 06:02:46;;;;;;;8.93;4.60;;;21.20;98.00;;;;;;5035111;28;20466;-72
2023/08/13 06:05:13;;;;;;;7.40;4.73;;;21.20;98.00;;;;;;5035249;28;20459;-72
2023/08/13 06:07:40;;;;;;;10.10;5.53;;;21.20;98.00;;;;;;5034809;28;21142;-72
2023/08/13 06:10:09;;;;;;;10.20;4.43;;;21.10;98.00;;;;;;5034897;28;20483;-71
2023/08/13 06:12:38;;;;;;;7.30;4.67;;;21.10;98.00;;;;;;5034817;28;20461;-72
2023/08/13 06:15:06;;;;;;;7.10;4.43;;;21.10;98.00;;;;;;5034916;28;20450;-71
2023/08/13 06:17:33;;;;;;;7.50;4.80;;;21.20;98.00;;;;;;5034823;28;20450;-72
2023/08/13 06:20:01;;;;;;;9.40;4.53;;;21.30;98.00;;;;;;5034810;28;20811;-72
2023/08/13 06:22:28;;;;;;;6.43;4.00;;;21.20;98.00;;;;;;5034810;28;20941;-71
2023/08/13 06:24:55;;;;;;;6.53;4.00;;;21.20;98.00;;;;;;5034854;28;20454;-71
2023/08/13 06:27:22;;;;;;;5.73;3.70;;;21.40;98.00;;;;;;5034849;28;20492;-72
2023/08/13 06:29:51;;;;;;;7.93;4.67;;;21.40;98.00;;;;;;5033304;28;20482;-71
2023/08/13 06:32:18;;;;;;;7.77;4.90;;;21.50;98.00;;;;;;5034296;28;20458;-72
2023/08/13 06:34:45;;;;;;;7.00;4.33;;;21.40;98.00;;;;;;5034402;28;20815;-72
2023/08/13 06:37:15;;;;;;;8.90;4.63;;;21.40;98.00;;;;;;5032949;28;20461;-73
2023/08/13 06:39:42;;;;;;;7.87;4.70;;;21.40;98.00;;;;;;5034112;28;20516;-71
2023/08/13 06:42:09;;;;;;;9.00;4.70;;;21.50;98.00;;;;;;5034226;28;20451;-72
2023/08/13 06:44:37;;;;;;;8.57;4.90;;;21.50;98.00;;;;;;5034001;28;20512;-71
2023/08/13 06:47:06;;;;;;;6.50;4.23;;;21.40;98.00;;;;;;5034214;28;20455;-72
2023/08/13 06:49:33;;;;;;;6.17;4.23;;;21.30;98.00;;;;;;5033855;28;20478;-67
2023/08/13 06:52:00;;;;;;;10.27;5.90;;;21.30;98.00;;;;;;5034153;28;21108;-66
2023/08/13 06:54:28;;;;;;;11.23;5.87;;;21.20;98.00;;;;;;5034239;28;20512;-66
2023/08/13 06:56:55;;;;;;;9.93;5.50;;;21.20;98.00;;;;;;5034102;28;20463;-66
2023/08/13 06:59:22;;;;;;;6.73;4.77;;;21.30;98.00;;;;;;5033796;28;20455;-66
2023/08/13 07:01:49;;;;;;;8.30;4.40;;;21.40;98.00;;;;;;5033992;28;20458;-66
2023/08/13 07:04:17;;;;;;;7.23;4.40;;;21.40;98.00;;;;;;5033943;28;21086;-66
2023/08/13 07:06:45;;;;;;;4.33;3.27;;;21.40;98.00;;;;;;5033979;28;20450;-67
2023/08/13 07:09:12;;;;;;;4.20;3.20;;;21.50;98.00;;;;;;5033927;28;20838;-67
2023/08/13 07:11:40;;;;;;;5.30;3.60;;;21.60;98.00;;;;;;5034076;28;20474;-68
2023/08/13 07:14:07;;;;;;;5.80;3.10;;;21.70;98.00;;;;;;5034040;28;20451;-67
2023/08/13 07:16:35;;;;;;;4.47;3.10;;;22.00;98.00;;;;;;5033990;28;20504;-67
2023/08/13 07:19:02;;;;;;;10.53;4.50;;;22.10;98.00;;;;;;5033995;28;20483;-69
2023/08/13 07:21:32;;;;;;;4.27;3.07;;;22.10;98.00;;;;;;5034065;28;20961;-67
2023/08/13 07:23:59;;;;;;;4.90;3.20;;;21.90;98.00;;;;;;5033693;28;20466;-67
2023/08/13 07:26:26;;;;;;;4.27;3.10;;;22.00;98.00;;;;;;5033657;28;20459;-67
2023/08/13 07:28:53;;;;;;;6.50;3.60;;;22.10;98.00;;;;;;5033219;28;20454;-66
2023/08/13 07:31:20;;;;;;;4.93;3.17;;;22.10;98.00;;;;;;5033817;28;20883;-69
2023/08/13 07:33:47;;;;;;;5.13;3.40;;;22.20;98.00;;;;;;5033129;28;20980;-68
2023/08/13 07:36:14;;;;;;;7.27;4.67;;;22.40;98.00;;;;;;5033230;28;20455;-68
2023/08/13 07:38:43;;;;;;;5.10;3.73;;;22.50;98.00;;;;;;5033339;28;20451;-67
2023/08/13 07:41:10;;;;;;;5.60;3.27;;;22.70;98.00;;;;;;5033229;28;20505;-68
2023/08/13 07:43:37;;;;;;;4.60;3.50;;;22.80;98.00;;;;;;5033125;28;20988;-68
2023/08/13 07:46:05;;;;;;;5.87;3.87;;;22.90;98.00;;;;;;5033138;28;20451;-68
2023/08/13 07:48:33;;;;;;;5.40;3.20;;;23.00;98.00;;;;;;5032882;28;20957;-68
2023/08/13 07:51:00;;;;;;;5.67;3.80;;;23.00;98.00;;;;;;5032989;28;20483;-66
2023/08/13 07:53:29;;;;;;;4.30;3.00;;;23.00;98.00;;;;;;5033158;28;20473;-67
2023/08/13 07:58:25;;;;;;;11.17;3.90;;;23.20;98.00;;;;;;5248367;22;21030;-67
2023/08/13 08:00:53;;;;;;;5.43;3.50;;;23.20;98.00;;;;;;5052157;28;20458;-68
2023/08/13 08:03:20;;;;;;;4.97;3.47;;;23.20;98.00;;;;;;5052049;28;20450;-67
2023/08/13 08:05:49;;;;;;;5.13;3.53;;;23.20;98.00;;;;;;5052337;28;20859;-67
2023/08/13 08:08:16;;;;;;;4.60;3.30;;;23.20;98.00;;;;;;5051725;28;20442;-68
2023/08/13 08:13:17;;;;;;;4.70;3.23;;;23.00;98.00;;;;;;5215582;22;20479;-67
2023/08/13 08:15:45;;;;;;;5.07;3.43;;;23.00;98.00;;;;;;5033491;28;20450;-70
2023/08/13 08:18:13;;;;;;;5.93;3.50;;;23.00;98.00;;;;;;5031269;28;20462;-68
2023/08/13 08:20:40;;;;;;;6.67;4.20;;;23.20;98.00;;;;;;5030031;28;20824;-67
2023/08/13 08:23:06;;;;;;;5.30;3.70;;;23.40;98.00;;;;;;5031352;28;20447;-67
2023/08/13 08:25:33;;;;;;;8.20;3.90;;;23.60;98.00;;;;;;5031856;28;20450;-68
2023/08/13 08:28:01;;;;;;;5.37;3.70;;;23.80;98.00;;;;;;5031628;28;20529;-68
2023/08/13 08:30:28;;;;;;;6.53;4.23;;;23.90;98.00;;;;;;5030012;28;20486;-67
2023/08/13 08:32:56;;;;;;;5.20;3.57;;;24.10;98.00;;;;;;5030887;28;20454;-67
2023/08/13 08:35:23;;;;;;;6.57;4.20;;;24.30;98.00;;;;;;5029648;28;20802;-67
2023/08/13 08:37:50;;;;;;;8.40;4.20;;;24.30;98.00;;;;;;5031432;28;20524;-67
2023/08/13 08:40:17;;;;;;;4.67;3.23;;;24.40;98.00;;;;;;5029825;28;20466;-67
2023/08/13 08:42:45;;;;;;;5.40;3.40;;;24.50;98.00;;;;;;5031518;28;20952;-67
2023/08/13 08:45:14;;;;;;;5.53;3.80;;;24.60;98.00;;;;;;5031593;28;20451;-68
2023/08/13 08:47:42;;;;;;;5.90;4.13;;;24.70;98.00;;;;;;5030136;28;20957;-68
2023/08/13 08:50:13;;;;;;;7.47;4.00;;;24.70;98.00;;;;;;5031357;28;20487;-68
2023/08/13 08:52:40;;;;;;;6.47;4.47;;;24.80;98.00;;;;;;5031300;28;20454;-67
2023/08/13 08:55:10;;;;;;;4.83;3.47;;;24.80;98.00;;;;;;5031309;28;20571;-68
2023/08/13 08:57:38;;;;;;;5.20;3.60;;;24.70;98.00;;;;;;5031364;28;20459;-67
2023/08/13 09:00:08;;;;;;;8.60;4.30;;;24.70;98.00;;;;;;5031202;28;20466;-66
2023/08/13 09:02:38;;;;;;;4.60;3.30;;;24.70;98.00;;;;;;5031268;28;20446;-68
2023/08/13 09:05:06;;;;;;;4.97;3.60;;;24.70;98.00;;;;;;5029446;28;20450;-69
2023/08/13 09:07:35;;;;;;;7.40;4.03;;;24.70;98.00;;;;;;5031149;28;20451;-67
2023/08/13 09:10:04;;;;;;;6.17;4.20;;;24.70;98.00;;;;;;5030750;28;20459;-67
2023/08/13 09:12:35;;;;;;;5.47;3.77;;;24.60;98.00;;;;;;5030430;28;21026;-68
2023/08/13 09:15:05;;;;;;;5.20;3.80;;;24.70;98.00;;;;;;5030956;28;20504;-67
2023/08/13 09:17:32;;;;;;;8.40;3.43;;;24.80;98.00;;;;;;5030961;28;20458;-67
2023/08/13 09:20:01;;;;;;;6.73;3.83;;;25.00;98.00;;;;;;5030892;28;20451;-68
2023/08/13 09:22:36;;;;;;;5.07;3.40;;;25.10;98.00;;;;;;5034715;28;20545;-66
2023/08/13 09:25:03;;;;;;;6.23;4.27;;;25.30;98.00;;;;;;5034831;28;20943;-67
2023/08/13 09:27:31;;;;;;;4.63;3.60;;;25.40;98.00;;;;;;5035215;28;20505;-67
2023/08/13 09:29:59;;;;;;;4.93;3.43;;;25.50;98.00;;;;;;5034417;28;20451;-67
2023/08/13 09:32:28;;;;;;;8.97;4.00;;;25.70;98.00;;;;;;5034760;28;20454;-66
2023/08/13 09:34:55;;;;;;;7.10;4.40;;;25.80;98.00;;;;;;5034244;28;20451;-68
2023/08/13 09:37:24;;;;;;;7.63;4.20;;;25.90;98.00;;;;;;5033308;28;20446;-66
2023/08/13 09:39:53;;;;;;;6.97;4.57;;;25.70;98.00;;;;;;5034674;28;20544;-67
2023/08/13 09:42:23;;;;;;;7.23;4.40;;;25.40;98.00;;;;;;5034598;28;20454;-68
2023/08/13 09:44:55;;;;;;;6.93;3.60;;;25.40;98.00;;;;;;5034600;28;20538;-69
2023/08/13 09:47:26;;;;;;;6.00;3.50;;;25.40;98.00;;;;;;5033130;28;20457;-68
2023/08/13 09:49:56;;;;;;;6.80;4.03;;;25.50;98.00;;;;;;5034223;28;20447;-69
2023/08/13 09:52:26;;;;;;;7.07;4.53;;;25.60;98.00;;;;;;5034324;28;20550;-68
2023/08/13 09:55:09;;;;;;;6.80;4.27;;;25.60;98.00;;;;;;5033154;28;20509;-69
2023/08/13 09:57:38;;;;;;;7.57;4.90;;;25.70;98.00;;;;;;5034548;28;20486;-67
2023/08/13 10:00:06;;;;;;;6.10;4.33;;;25.60;98.00;;;;;;5034220;28;21014;-68
2023/08/13 10:02:33;;;;;;;6.50;4.37;;;25.60;98.00;;;;;;5034596;28;20785;-67
2023/08/13 10:05:01;;;;;;;6.93;4.73;;;25.50;98.00;;;;;;5034187;28;20458;-67
2023/08/13 10:07:28;;;;;;;6.60;4.40;;;25.40;98.00;;;;;;5034436;28;20458;-68
2023/08/13 10:09:58;;;;;;;6.20;4.20;;;25.30;98.00;;;;;;5033044;28;20541;-67
2023/08/13 10:12:25;;;;;;;6.87;4.40;;;25.10;98.00;;;;;;5034224;28;20547;-67
2023/08/13 10:14:52;;;;;;;8.40;4.77;;;25.30;98.00;;;;;;5034112;28;20450;-67
2023/08/13 10:17:23;;;;;;;6.93;4.50;;;25.40;98.00;;;;;;5034113;28;20454;-68
2023/08/13 10:19:51;;;;;;;7.10;4.60;;;25.70;98.00;;;;;;5034376;28;20955;-68
2023/08/13 10:22:25;;;;;;;9.50;5.20;;;25.90;98.00;;;;;;5034043;28;20600;-67
2023/08/13 10:24:53;;;;;;;6.67;4.57;;;26.10;98.00;;;;;;5034123;28;20490;-68
2023/08/13 10:27:23;;;;;;;7.00;4.77;;;26.30;98.00;;;;;;5034299;28;20458;-68
2023/08/13 10:29:51;;;;;;;6.23;4.50;;;26.50;98.00;;;;;;5034104;28;20542;-68
2023/08/13 10:32:18;;;;;;;6.90;4.87;;;26.60;98.00;;;;;;5033638;28;20573;-68
2023/08/13 10:34:50;;;;;;;7.27;5.00;;;26.70;98.00;;;;;;5033829;28;20497;-68
2023/08/13 10:37:18;;;;;;;7.13;4.70;;;26.90;98.00;;;;;;5033896;28;20474;-68
2023/08/13 10:39:47;;;;;;;8.00;4.70;;;27.10;98.00;;;;;;5034038;28;20447;-68
2023/08/13 10:42:56;;;;;;;6.00;4.57;;;27.20;98.00;;;;;;5033658;28;20458;-68
2023/08/13 10:45:27;;;;;;;6.60;4.63;;;27.40;98.00;;;;;;5018372;28;20450;-68
2023/08/13 10:47:57;;;;;;;6.97;4.60;;;27.60;98.00;;;;;;5033555;28;20450;-68
2023/08/13 10:50:31;;;;;;;5.10;3.73;;;27.60;98.00;;;;;;5033495;28;20466;-68
2023/08/13 10:53:04;;;;;;;6.70;4.77;;;27.70;98.00;;;;;;5033561;28;20482;-68
2023/08/13 10:55:33;;;;;;;7.27;4.70;;;27.90;98.00;;;;;;5033513;28;20957;-68
2023/08/13 10:58:01;;;;;;;8.20;4.00;;;28.00;98.00;;;;;;5033296;28;20458;-68
2023/08/13 11:00:29;;;;;;;8.23;4.77;;;28.10;98.00;;;;;;5033459;28;20450;-68
2023/08/13 11:03:00;;;;;;;7.83;4.60;;;28.00;98.00;;;;;;5033273;28;20485;-68
2023/08/13 11:05:28;;;;;;;7.37;4.77;;;28.00;98.00;;;;;;5033184;28;20458;-68
2023/08/13 11:07:57;;;;;;;7.40;4.97;;;28.10;98.00;;;;;;5033383;28;20878;-68
2023/08/13 11:10:24;;;;;;;6.00;4.30;;;28.10;98.00;;;;;;5033396;28;20465;-67
2023/08/13 11:12:51;;;;;;;6.97;4.80;;;28.20;98.00;;;;;;5033128;28;20459;-68
2023/08/13 11:15:19;;;;;;;7.87;4.77;;;28.20;98.00;;;;;;5032950;28;20459;-68
2023/08/13 11:17:50;;;;;;;7.57;4.47;;;28.30;98.00;;;;;;5033281;28;20879;-68
2023/08/13 11:20:18;;;;;;;5.50;3.90;;;28.10;98.00;;;;;;5033334;28;20447;-68
2023/08/13 11:22:45;;;;;;;5.83;4.30;;;27.80;98.00;;;;;;5033232;28;20450;-68
2023/08/13 11:25:16;;;;;;;6.10;4.27;;;27.80;98.00;;;;;;5033110;28;20455;-68
2023/08/13 11:27:43;;;;;;;5.90;4.07;;;27.60;98.00;;;;;;5031843;28;20486;-68
2023/08/13 11:30:11;;;;;;;7.27;4.40;;;27.60;98.00;;;;;;5033139;28;20819;-68
2023/08/13 11:32:39;;;;;;;5.13;3.83;;;27.80;98.00;;;;;;5033554;28;20493;-69
2023/08/13 11:35:09;;;;;;;6.47;4.30;;;28.00;98.00;;;;;;5033118;28;20455;-66
2023/08/13 11:37:44;;;;;;;4.70;3.50;;;28.10;98.00;;;;;;5033445;28;20534;-68
2023/08/13 11:40:11;;;;;;;5.93;3.70;;;28.40;98.00;;;;;;5033138;28;20449;-69
2023/08/13 11:42:50;;;;;;;5.10;3.50;;;28.40;98.00;;;;;;5033336;28;20454;-69
2023/08/13 11:45:17;;;;;;;6.13;3.93;;;28.40;98.00;;;;;;5032060;28;20485;-69
2023/08/13 11:47:45;;;;;;;11.40;3.87;;;28.40;98.00;;;;;;5033084;28;20860;-68
2023/08/13 11:50:20;;;;;;;8.67;4.13;;;28.40;98.00;;;;;;5033068;28;20504;-68
2023/08/13 11:53:04;;;;;;;6.57;3.80;;;28.80;98.00;;;;;;5033047;28;20493;-68
2023/08/13 11:55:31;;;;;;;6.07;3.93;;;29.30;98.00;;;;;;5050161;28;20466;-69
2023/08/13 11:57:59;;;;;;;6.20;4.10;;;29.80;98.00;;;;;;5052543;28;20453;-68
2023/08/13 12:00:26;;;;;;;9.50;4.20;;;30.20;98.00;;;;;;5046249;28;20462;-68
2023/08/13 12:02:55;;;;;;;7.00;4.43;;;30.50;98.00;;;;;;5033050;28;20454;-68
2023/08/13 12:05:26;;;;;;;7.10;3.87;;;30.70;98.00;;;;;;5032924;28;20490;-68
2023/08/13 12:07:53;;;;;;;5.70;3.90;;;31.10;98.00;;;;;;5032910;28;20547;-68
2023/08/13 12:10:20;;;;;;;7.90;4.73;;;31.40;98.00;;;;;;5032631;28;20848;-68
2023/08/13 12:12:48;;;;;;;6.47;4.40;;;31.70;98.00;;;;;;5032735;28;20524;-68
2023/08/13 12:15:15;;;;;;;7.30;4.27;;;31.80;98.00;;;;;;5032929;28;20462;-68
2023/08/13 12:17:42;;;;;;;5.43;4.00;;;31.50;98.00;;;;;;5032733;28;20520;-68
2023/08/13 12:20:11;;;;;;;7.77;4.53;;;31.10;98.00;;;;;;5032675;28;20462;-68
2023/08/13 12:22:40;;;;;;;5.60;3.97;;;30.60;98.00;;;;;;5031672;28;20470;-68
2023/08/13 12:25:08;;;;;;;6.03;4.00;;;30.10;98.00;;;;;;5032482;28;21094;-68
2023/08/13 12:27:35;;;;;;;6.67;3.90;;;29.70;98.00;;;;;;5032496;28;20459;-68
2023/08/13 12:30:03;;;;;;;6.10;3.73;;;29.40;98.00;;;;;;5032154;28;20443;-68
2023/08/13 12:32:30;;;;;;;8.77;4.53;;;29.30;98.00;;;;;;5032291;28;20487;-68
2023/08/13 12:34:57;;;;;;;8.13;4.63;;;29.10;98.00;;;;;;5031657;28;20465;-68
2023/08/13 12:37:25;;;;;;;6.53;3.90;;;28.80;98.00;;;;;;5032357;28;20818;-68
2023/08/13 12:39:54;;;;;;;6.40;3.93;;;28.60;98.00;;;;;;5031847;28;20509;-68
2023/08/13 12:42:21;;;;;;;5.63;4.00;;;28.50;98.00;;;;;;5032273;28;20455;-68
2023/08/13 12:44:48;;;;;;;5.63;3.73;;;28.40;98.00;;;;;;5032239;28;20482;-68
2023/08/13 12:47:17;;;;;;;6.23;3.90;;;28.40;98.00;;;;;;5031636;28;20454;-68
2023/08/13 12:49:44;;;;;;;5.97;4.03;;;28.60;98.00;;;;;;5032027;28;20457;-68
2023/08/13 12:52:11;;;;;;;5.60;3.63;;;29.10;98.00;;;;;;5031951;28;20487;-68
2023/08/13 12:54:38;;;;;;;5.30;3.80;;;29.70;98.00;;;;;;5031983;28;20457;-68
2023/08/13 12:57:06;;;;;;;8.87;4.40;;;30.00;98.00;;;;;;5031689;28;20804;-68